createdAt,value
2018-07-20T00:00:31.251Z,0.00
2018-07-20T00:01:31.280Z,0.00
2018-07-20T00:02:31.311Z,0.00
2018-07-20T00:03:31.341Z,0.00
2018-07-20T00:04:31.372Z,0.00
2018-07-20T00:05:31.401Z,0.00
2018-07-20T00:06:31.428Z,0.00
2018-07-20T00:07:31.489Z,0.00
2018-07-20T00:08:31.488Z,0.00
2018-07-20T00:09:31.518Z,0.00
2018-07-20T00:10:31.546Z,0.00
2018-07-20T00:11:31.579Z,0.00
2018-07-20T00:12:31.606Z,0.00
2018-07-20T00:13:31.635Z,0.00
2018-07-20T00:14:31.665Z,0.00
2018-07-20T00:15:31.694Z,0.00
2018-07-20T00:16:31.725Z,0.00
2018-07-20T00:17:31.753Z,0.00
2018-07-20T00:18:31.782Z,0.00
2018-07-20T00:19:31.812Z,0.00
2018-07-20T00:20:31.842Z,0.00
2018-07-20T00:21:31.871Z,0.00
2018-07-20T00:22:31.901Z,0.00
2018-07-20T00:23:31.931Z,0.00
2018-07-20T00:24:31.961Z,0.00
2018-07-20T00:25:31.989Z,0.00
2018-07-20T00:26:32.019Z,0.00
2018-07-20T00:27:32.049Z,0.00
2018-07-20T00:28:32.080Z,0.00
2018-07-20T00:29:32.108Z,4.00
2018-07-20T00:30:32.138Z,4.00
2018-07-20T00:31:32.168Z,4.00
2018-07-20T00:32:32.198Z,4.00
2018-07-20T00:33:32.225Z,0.00
2018-07-20T00:34:32.255Z,0.00
2018-07-20T00:35:32.286Z,0.00
2018-07-20T00:36:32.315Z,0.00
2018-07-20T00:37:32.344Z,4.00
2018-07-20T00:38:32.373Z,4.00
2018-07-20T00:39:32.404Z,4.00
2018-07-20T00:40:32.434Z,0.00
2018-07-20T00:41:32.462Z,0.00
2018-07-20T00:42:32.496Z,4.00
2018-07-20T00:43:32.523Z,4.00
2018-07-20T00:44:32.551Z,4.00
2018-07-20T00:45:32.580Z,4.00
2018-07-20T00:46:32.612Z,0.00
2018-07-20T00:47:32.640Z,4.00
2018-07-20T00:48:32.670Z,4.00
2018-07-20T00:49:32.699Z,4.00
2018-07-20T00:50:32.728Z,4.00
2018-07-20T00:51:32.775Z,4.00
2018-07-20T00:52:32.788Z,4.00
2018-07-20T00:53:32.817Z,4.00
2018-07-20T00:54:32.847Z,4.00
2018-07-20T00:55:32.877Z,8.00
2018-07-20T00:56:32.906Z,4.00
2018-07-20T00:57:32.934Z,4.00
2018-07-20T00:58:32.965Z,8.00
2018-07-20T00:59:32.999Z,8.00
2018-07-20T01:00:33.025Z,4.00
2018-07-20T01:01:33.053Z,8.00
2018-07-20T01:02:33.083Z,8.00
2018-07-20T01:03:33.113Z,8.00
2018-07-20T01:04:33.142Z,8.00
2018-07-20T01:05:33.318Z,8.00
2018-07-20T01:06:33.201Z,8.00
2018-07-20T01:07:33.236Z,12.00
2018-07-20T01:08:33.294Z,12.00
2018-07-20T01:09:33.292Z,8.00
2018-07-20T01:10:33.319Z,12.00
2018-07-20T01:11:33.349Z,12.00
2018-07-20T01:12:33.378Z,12.00
2018-07-20T01:13:33.407Z,12.00
2018-07-20T01:14:33.437Z,16.00
2018-07-20T01:15:33.467Z,16.00
2018-07-20T01:16:33.497Z,12.00
2018-07-20T01:17:33.525Z,16.00
2018-07-20T01:18:33.556Z,20.00
2018-07-20T01:19:33.585Z,16.00
2018-07-20T01:20:33.615Z,20.00
2018-07-20T01:21:33.644Z,16.00
2018-07-20T01:22:33.673Z,20.00
2018-07-20T01:23:33.757Z,20.00
2018-07-20T01:24:33.767Z,24.00
2018-07-20T01:25:33.790Z,20.00
2018-07-20T01:26:33.815Z,24.00
2018-07-20T01:27:33.847Z,24.00
2018-07-20T01:28:33.866Z,24.00
2018-07-20T01:29:33.919Z,28.00
2018-07-20T01:30:33.909Z,28.00
2018-07-20T01:31:33.939Z,28.00
2018-07-20T01:32:33.991Z,32.00
2018-07-20T01:33:34.000Z,32.00
2018-07-20T01:34:34.028Z,32.00
2018-07-20T01:35:34.057Z,32.00
2018-07-20T01:36:34.090Z,36.00
2018-07-20T01:37:34.116Z,36.00
2018-07-20T01:38:34.146Z,40.00
2018-07-20T01:39:34.199Z,36.00
2018-07-20T01:40:34.205Z,40.00
2018-07-20T01:41:34.234Z,44.00
2018-07-20T01:42:34.263Z,44.00
2018-07-20T01:43:34.293Z,48.00
2018-07-20T01:44:34.326Z,52.00
2018-07-20T01:45:34.352Z,52.00
2018-07-20T01:46:34.382Z,52.00
2018-07-20T01:47:34.411Z,48.00
2018-07-20T01:48:34.441Z,52.00
2018-07-20T01:49:34.470Z,52.00
2018-07-20T01:50:34.500Z,56.00
2018-07-20T01:51:34.530Z,52.00
2018-07-20T01:52:34.559Z,56.00
2018-07-20T01:53:34.590Z,60.00
2018-07-20T01:54:34.618Z,60.00
2018-07-20T01:55:34.647Z,64.00
2018-07-20T01:56:34.677Z,64.00
2018-07-20T01:57:34.759Z,60.00
2018-07-20T01:58:34.736Z,68.00
2018-07-20T01:59:34.765Z,64.00
2018-07-20T02:00:34.834Z,68.00
2018-07-20T02:01:34.825Z,68.00
2018-07-20T02:02:34.868Z,68.00
2018-07-20T02:03:34.884Z,72.00
2018-07-20T02:04:34.923Z,76.00
2018-07-20T02:05:34.943Z,72.00
2018-07-20T02:06:34.972Z,76.00
2018-07-20T02:07:35.002Z,76.00
2018-07-20T02:08:35.043Z,76.00
2018-07-20T02:09:35.061Z,76.00
2018-07-20T02:10:35.091Z,76.00
2018-07-20T02:11:35.120Z,80.00
2018-07-20T02:12:35.151Z,76.00
2018-07-20T02:13:35.179Z,80.00
2018-07-20T02:14:35.208Z,76.00
2018-07-20T02:15:35.239Z,80.00
2018-07-20T02:16:35.296Z,84.00
2018-07-20T02:17:35.296Z,76.00
2018-07-20T02:18:35.331Z,68.00
2018-07-20T02:19:35.356Z,60.00
2018-07-20T02:20:35.387Z,64.00
2018-07-20T02:21:35.515Z,68.00
2018-07-20T02:22:35.473Z,68.00
2018-07-20T02:23:35.491Z,68.00
2018-07-20T02:24:35.504Z,60.00
2018-07-20T02:25:35.536Z,60.00
2018-07-20T02:26:35.563Z,60.00
2018-07-20T02:27:35.593Z,60.00
2018-07-20T02:28:35.633Z,64.00
2018-07-20T02:29:35.736Z,64.00
2018-07-20T02:30:35.681Z,64.00
2018-07-20T02:31:35.712Z,64.00
2018-07-20T02:32:35.740Z,68.00
2018-07-20T02:33:35.770Z,68.00
2018-07-20T02:34:35.801Z,68.00
2018-07-20T02:35:35.829Z,72.00
2018-07-20T02:36:35.859Z,76.00
2018-07-20T02:37:35.887Z,76.00
2018-07-20T02:38:35.918Z,80.00
2018-07-20T02:39:35.978Z,84.00
2018-07-20T02:40:35.979Z,84.00
2018-07-20T02:41:36.007Z,88.00
2018-07-20T02:42:36.036Z,92.00
2018-07-20T02:43:36.066Z,96.00
2018-07-20T02:44:36.095Z,100.00
2018-07-20T02:45:36.124Z,104.00
2018-07-20T02:46:36.154Z,104.00
2018-07-20T02:47:36.184Z,112.00
2018-07-20T02:48:36.214Z,116.00
2018-07-20T02:49:36.242Z,116.00
2018-07-20T02:50:36.274Z,120.00
2018-07-20T02:51:36.306Z,120.00
2018-07-20T02:52:36.332Z,124.00
2018-07-20T02:53:36.392Z,124.00
2018-07-20T02:54:36.391Z,124.00
2018-07-20T02:55:36.420Z,128.00
2018-07-20T02:56:36.474Z,132.00
2018-07-20T02:57:36.478Z,136.00
2018-07-20T02:58:36.509Z,136.00
2018-07-20T02:59:36.538Z,140.00
2018-07-20T03:00:36.569Z,148.00
2018-07-20T03:01:36.598Z,148.00
2018-07-20T03:02:36.627Z,156.00
2018-07-20T03:03:36.657Z,160.00
2018-07-20T03:04:36.686Z,164.00
2018-07-20T03:05:36.715Z,168.00
2018-07-20T03:06:36.744Z,176.00
2018-07-20T03:07:36.814Z,184.00
2018-07-20T03:08:36.827Z,192.00
2018-07-20T03:09:36.833Z,196.00
2018-07-20T03:10:36.871Z,208.00
2018-07-20T03:11:36.894Z,212.00
2018-07-20T03:12:36.923Z,224.00
2018-07-20T03:13:36.951Z,236.00
2018-07-20T03:14:36.986Z,244.00
2018-07-20T03:15:37.012Z,256.00
2018-07-20T03:16:37.045Z,276.00
2018-07-20T03:17:37.084Z,300.00
2018-07-20T03:18:37.099Z,332.00
2018-07-20T03:19:37.130Z,388.00
2018-07-20T03:20:37.160Z,456.00
2018-07-20T03:21:37.188Z,544.00
2018-07-20T03:22:37.218Z,620.00
2018-07-20T03:23:37.278Z,692.00
2018-07-20T03:24:37.279Z,772.00
2018-07-20T03:25:37.306Z,776.00
2018-07-20T03:26:37.335Z,732.00
2018-07-20T03:27:37.366Z,744.00
2018-07-20T03:28:37.396Z,724.00
2018-07-20T03:29:37.428Z,752.00
2018-07-20T03:30:37.454Z,840.00
2018-07-20T03:31:37.485Z,888.00
2018-07-20T03:32:37.539Z,944.00
2018-07-20T03:33:37.542Z,912.00
2018-07-20T03:34:37.576Z,776.00
2018-07-20T03:35:37.602Z,648.00
2018-07-20T03:36:37.631Z,616.00
2018-07-20T03:37:37.660Z,612.00
2018-07-20T03:38:37.689Z,608.00
2018-07-20T03:39:37.722Z,620.00
2018-07-20T03:40:37.765Z,648.00
2018-07-20T03:41:37.816Z,672.00
2018-07-20T03:42:37.809Z,660.00
2018-07-20T03:43:37.837Z,628.00
2018-07-20T03:44:37.867Z,604.00
2018-07-20T03:45:37.896Z,592.00
2018-07-20T03:46:37.926Z,568.00
2018-07-20T03:47:37.976Z,540.00
2018-07-20T03:48:37.988Z,576.00
2018-07-20T03:49:38.014Z,616.00
2018-07-20T03:50:38.044Z,632.00
2018-07-20T03:51:38.073Z,628.00
2018-07-20T03:52:38.108Z,624.00
2018-07-20T03:53:38.135Z,632.00
2018-07-20T03:54:38.162Z,644.00
2018-07-20T03:55:38.192Z,628.00
2018-07-20T03:56:38.221Z,624.00
2018-07-20T03:57:38.251Z,608.00
2018-07-20T03:58:38.283Z,608.00
2018-07-20T03:59:38.310Z,592.00
2018-07-20T04:00:38.339Z,620.00
2018-07-20T04:01:38.401Z,608.00
2018-07-20T04:02:38.399Z,548.00
2018-07-20T04:03:38.428Z,500.00
2018-07-20T04:04:38.457Z,464.00
2018-07-20T04:05:38.488Z,484.00
2018-07-20T04:06:38.516Z,532.00
2018-07-20T04:07:38.546Z,536.00
2018-07-20T04:08:38.576Z,608.00
2018-07-20T04:09:38.605Z,712.00
2018-07-20T04:10:38.634Z,564.00
2018-07-20T04:11:38.664Z,564.00
2018-07-20T04:12:38.694Z,652.00
2018-07-20T04:13:38.722Z,780.00
2018-07-20T04:14:38.752Z,696.00
2018-07-20T04:15:38.782Z,584.00
2018-07-20T04:16:38.812Z,504.00
2018-07-20T04:17:38.841Z,464.00
2018-07-20T04:18:38.905Z,436.00
2018-07-20T04:19:38.904Z,436.00
2018-07-20T04:20:38.932Z,472.00
2018-07-20T04:21:38.987Z,520.00
2018-07-20T04:22:38.989Z,512.00
2018-07-20T04:23:39.018Z,488.00
2018-07-20T04:24:39.048Z,508.00
2018-07-20T04:25:39.076Z,616.00
2018-07-20T04:26:39.142Z,728.00
2018-07-20T04:27:39.136Z,764.00
2018-07-20T04:28:39.166Z,788.00
2018-07-20T04:29:39.195Z,948.00
2018-07-20T04:30:39.226Z,1004.00
2018-07-20T04:31:39.257Z,784.00
2018-07-20T04:32:39.284Z,800.00
2018-07-20T04:33:39.317Z,752.00
2018-07-20T04:34:39.343Z,780.00
2018-07-20T04:35:39.373Z,836.00
2018-07-20T04:36:39.404Z,688.00
2018-07-20T04:37:39.432Z,704.00
2018-07-20T04:38:39.461Z,864.00
2018-07-20T04:39:39.492Z,1060.00
2018-07-20T04:40:39.521Z,1348.00
2018-07-20T04:41:39.549Z,1436.00
2018-07-20T04:42:39.579Z,1192.00
2018-07-20T04:43:39.610Z,856.00
2018-07-20T04:44:39.639Z,784.00
2018-07-20T04:45:39.668Z,1016.00
2018-07-20T04:46:39.699Z,1272.00
2018-07-20T04:47:39.729Z,1028.00
2018-07-20T04:48:39.772Z,764.00
2018-07-20T04:49:39.786Z,612.00
2018-07-20T04:50:39.856Z,556.00
2018-07-20T04:51:39.892Z,460.00
2018-07-20T04:52:39.876Z,432.00
2018-07-20T04:53:39.904Z,408.00
2018-07-20T04:54:39.934Z,392.00
2018-07-20T04:55:39.964Z,388.00
2018-07-20T04:56:39.994Z,376.00
2018-07-20T04:57:40.023Z,356.00
2018-07-20T04:58:40.085Z,344.00
2018-07-20T04:59:40.083Z,324.00
2018-07-20T05:00:40.112Z,316.00
2018-07-20T05:01:40.147Z,316.00
2018-07-20T05:02:40.172Z,316.00
2018-07-20T05:03:40.211Z,312.00
2018-07-20T05:04:40.230Z,320.00
2018-07-20T05:05:40.260Z,364.00
2018-07-20T05:06:40.289Z,372.00
2018-07-20T05:07:40.319Z,392.00
2018-07-20T05:08:40.349Z,448.00
2018-07-20T05:09:40.377Z,580.00
2018-07-20T05:10:40.407Z,808.00
2018-07-20T05:11:40.437Z,972.00
2018-07-20T05:12:40.467Z,952.00
2018-07-20T05:13:40.496Z,916.00
2018-07-20T05:14:40.526Z,908.00
2018-07-20T05:15:40.555Z,1092.00
2018-07-20T05:16:40.585Z,1184.00
2018-07-20T05:17:40.616Z,1076.00
2018-07-20T05:18:40.679Z,1112.00
2018-07-20T05:19:40.691Z,1012.00
2018-07-20T05:20:40.705Z,1096.00
2018-07-20T05:21:40.732Z,1016.00
2018-07-20T05:22:40.762Z,996.00
2018-07-20T05:23:40.809Z,972.00
2018-07-20T05:24:40.822Z,924.00
2018-07-20T05:25:40.900Z,1068.00
2018-07-20T05:26:40.884Z,1248.00
2018-07-20T05:27:40.910Z,1156.00
2018-07-20T05:28:40.940Z,1176.00
2018-07-20T05:29:40.969Z,1072.00
2018-07-20T05:30:40.999Z,1252.00
2018-07-20T05:31:41.029Z,1200.00
2018-07-20T05:32:41.086Z,1464.00
2018-07-20T05:33:41.089Z,1372.00
2018-07-20T05:34:41.117Z,1152.00
2018-07-20T05:35:41.147Z,956.00
2018-07-20T05:36:41.179Z,936.00
2018-07-20T05:37:41.232Z,888.00
2018-07-20T05:38:41.236Z,916.00
2018-07-20T05:39:41.295Z,908.00
2018-07-20T05:40:41.295Z,920.00
2018-07-20T05:41:41.324Z,944.00
2018-07-20T05:42:41.359Z,944.00
2018-07-20T05:43:41.425Z,908.00
2018-07-20T05:44:41.414Z,912.00
2018-07-20T05:45:41.443Z,980.00
2018-07-20T05:46:41.472Z,1004.00
2018-07-20T05:47:41.503Z,1004.00
2018-07-20T05:48:41.532Z,956.00
2018-07-20T05:49:41.561Z,752.00
2018-07-20T05:50:41.593Z,620.00
2018-07-20T05:51:41.621Z,560.00
2018-07-20T05:52:41.651Z,520.00
2018-07-20T05:53:41.680Z,492.00
2018-07-20T05:54:41.744Z,464.00
2018-07-20T05:55:41.740Z,476.00
2018-07-20T05:56:41.770Z,496.00
2018-07-20T05:57:41.798Z,508.00
2018-07-20T05:58:41.828Z,540.00
2018-07-20T05:59:41.858Z,548.00
2018-07-20T06:00:41.889Z,564.00
2018-07-20T06:01:41.917Z,532.00
2018-07-20T06:02:41.946Z,524.00
2018-07-20T06:03:41.977Z,540.00
2018-07-20T06:04:42.007Z,528.00
2018-07-20T06:05:42.121Z,552.00
2018-07-20T06:06:42.066Z,608.00
2018-07-20T06:07:42.097Z,600.00
2018-07-20T06:08:42.131Z,628.00
2018-07-20T06:09:42.154Z,668.00
2018-07-20T06:10:42.184Z,684.00
2018-07-20T06:11:42.214Z,636.00
2018-07-20T06:12:42.244Z,584.00
2018-07-20T06:13:42.273Z,524.00
2018-07-20T06:14:42.303Z,540.00
2018-07-20T06:15:42.332Z,580.00
2018-07-20T06:16:42.363Z,608.00
2018-07-20T06:17:42.417Z,660.00
2018-07-20T06:18:42.422Z,700.00
2018-07-20T06:19:42.452Z,708.00
2018-07-20T06:20:42.481Z,740.00
2018-07-20T06:21:42.512Z,732.00
2018-07-20T06:22:42.608Z,724.00
2018-07-20T06:23:42.595Z,736.00
2018-07-20T06:24:42.600Z,708.00
2018-07-20T06:25:42.635Z,632.00
2018-07-20T06:26:42.659Z,612.00
2018-07-20T06:27:42.688Z,676.00
2018-07-20T06:28:42.718Z,704.00
2018-07-20T06:29:42.791Z,700.00
2018-07-20T06:30:42.777Z,680.00
2018-07-20T06:31:42.807Z,664.00
2018-07-20T06:32:42.836Z,560.00
2018-07-20T06:33:42.866Z,500.00
2018-07-20T06:34:42.896Z,568.00
2018-07-20T06:35:42.926Z,604.00
2018-07-20T06:36:42.957Z,592.00
2018-07-20T06:37:42.984Z,564.00
2018-07-20T06:38:43.016Z,536.00
2018-07-20T06:39:43.112Z,544.00
2018-07-20T06:40:43.106Z,536.00
2018-07-20T06:41:43.104Z,548.00
2018-07-20T06:42:43.157Z,548.00
2018-07-20T06:43:43.163Z,540.00
2018-07-20T06:44:43.193Z,536.00
2018-07-20T06:45:43.222Z,524.00
2018-07-20T06:46:43.252Z,512.00
2018-07-20T06:47:43.307Z,496.00
2018-07-20T06:48:43.312Z,492.00
2018-07-20T06:49:43.373Z,488.00
2018-07-20T06:50:43.372Z,488.00
2018-07-20T06:51:43.401Z,476.00
2018-07-20T06:52:43.430Z,456.00
2018-07-20T06:53:43.460Z,456.00
2018-07-20T06:54:43.489Z,444.00
2018-07-20T06:55:43.520Z,432.00
2018-07-20T06:56:43.550Z,424.00
2018-07-20T06:57:43.578Z,420.00
2018-07-20T06:58:43.642Z,412.00
2018-07-20T06:59:43.638Z,404.00
2018-07-20T07:00:43.668Z,396.00
2018-07-20T07:01:43.697Z,388.00
2018-07-20T07:02:43.727Z,380.00
2018-07-20T07:03:43.757Z,376.00
2018-07-20T07:04:43.787Z,372.00
2018-07-20T07:05:43.816Z,372.00
2018-07-20T07:06:43.846Z,368.00
2018-07-20T07:07:43.876Z,364.00
2018-07-20T07:08:43.906Z,360.00
2018-07-20T07:09:43.937Z,336.00
2018-07-20T07:10:43.965Z,316.00
2018-07-20T07:11:43.996Z,312.00
2018-07-20T07:12:44.027Z,312.00
2018-07-20T07:13:44.056Z,316.00
2018-07-20T07:14:44.085Z,312.00
2018-07-20T07:15:44.114Z,324.00
2018-07-20T07:16:44.163Z,328.00
2018-07-20T07:17:44.190Z,328.00
2018-07-20T07:18:44.202Z,328.00
2018-07-20T07:19:44.232Z,328.00
2018-07-20T07:20:44.262Z,328.00
2018-07-20T07:21:44.291Z,324.00
2018-07-20T07:22:44.321Z,308.00
2018-07-20T07:23:44.410Z,316.00
2018-07-20T07:24:44.381Z,320.00
2018-07-20T07:25:44.415Z,320.00
2018-07-20T07:26:44.440Z,320.00
2018-07-20T07:27:44.471Z,316.00
2018-07-20T07:28:44.505Z,312.00
2018-07-20T07:29:44.530Z,320.00
2018-07-20T07:30:44.560Z,312.00
2018-07-20T07:31:44.589Z,312.00
2018-07-20T07:32:44.619Z,312.00
2018-07-20T07:33:44.648Z,312.00
2018-07-20T07:34:44.678Z,304.00
2018-07-20T07:35:44.757Z,304.00
2018-07-20T07:36:44.738Z,296.00
2018-07-20T07:37:44.767Z,296.00
2018-07-20T07:38:44.797Z,296.00
2018-07-20T07:39:44.827Z,300.00
2018-07-20T07:40:44.856Z,296.00
2018-07-20T07:41:44.886Z,296.00
2018-07-20T07:42:44.917Z,300.00
2018-07-20T07:43:44.946Z,300.00
2018-07-20T07:44:44.976Z,296.00
2018-07-20T07:45:45.005Z,300.00
2018-07-20T07:46:45.039Z,296.00
2018-07-20T07:47:45.065Z,288.00
2018-07-20T07:48:45.095Z,292.00
2018-07-20T07:49:45.124Z,296.00
2018-07-20T07:50:45.155Z,296.00
2018-07-20T07:51:45.185Z,296.00
2018-07-20T07:52:45.214Z,300.00
2018-07-20T07:53:45.246Z,300.00
2018-07-20T07:54:45.316Z,300.00
2018-07-20T07:55:45.307Z,304.00
2018-07-20T07:56:45.333Z,296.00
2018-07-20T07:57:45.366Z,296.00
2018-07-20T07:58:45.397Z,292.00
2018-07-20T07:59:45.422Z,296.00
2018-07-20T08:00:45.490Z,296.00
2018-07-20T08:01:45.515Z,296.00
2018-07-20T08:02:45.511Z,288.00
2018-07-20T08:03:45.544Z,288.00
2018-07-20T08:04:45.571Z,292.00
2018-07-20T08:05:45.625Z,288.00
2018-07-20T08:06:45.631Z,288.00
2018-07-20T08:07:45.664Z,288.00
2018-07-20T08:08:45.691Z,288.00
2018-07-20T08:09:45.762Z,284.00
2018-07-20T08:10:45.769Z,288.00
2018-07-20T08:11:45.779Z,296.00
2018-07-20T08:12:45.810Z,296.00
2018-07-20T08:13:45.839Z,296.00
2018-07-20T08:14:45.869Z,292.00
2018-07-20T08:15:45.974Z,296.00
2018-07-20T08:16:45.929Z,288.00
2018-07-20T08:17:45.958Z,292.00
2018-07-20T08:18:45.989Z,292.00
2018-07-20T08:19:46.017Z,288.00
2018-07-20T08:20:46.048Z,296.00
2018-07-20T08:21:46.077Z,300.00
2018-07-20T08:22:46.118Z,296.00
2018-07-20T08:23:46.140Z,292.00
2018-07-20T08:24:46.167Z,292.00
2018-07-20T08:25:46.196Z,292.00
2018-07-20T08:26:46.230Z,292.00
2018-07-20T08:27:46.256Z,296.00
2018-07-20T08:28:46.286Z,292.00
2018-07-20T08:29:46.319Z,296.00
2018-07-20T08:30:46.383Z,292.00
2018-07-20T08:31:46.375Z,288.00
2018-07-20T08:32:46.405Z,288.00
2018-07-20T08:33:46.434Z,292.00
2018-07-20T08:34:46.464Z,288.00
2018-07-20T08:35:46.494Z,292.00
2018-07-20T08:36:46.525Z,292.00
2018-07-20T08:37:46.554Z,284.00
2018-07-20T08:38:46.583Z,284.00
2018-07-20T08:39:46.614Z,288.00
2018-07-20T08:40:46.644Z,292.00
2018-07-20T08:41:46.673Z,288.00
2018-07-20T08:42:46.703Z,280.00
2018-07-20T08:43:46.733Z,276.00
2018-07-20T08:44:46.766Z,272.00
2018-07-20T08:45:46.792Z,264.00
2018-07-20T08:46:46.831Z,260.00
2018-07-20T08:47:46.852Z,244.00
2018-07-20T08:48:46.882Z,228.00
2018-07-20T08:49:46.912Z,228.00
2018-07-20T08:50:46.942Z,228.00
2018-07-20T08:51:46.971Z,236.00
2018-07-20T08:52:47.002Z,236.00
2018-07-20T08:53:47.031Z,248.00
2018-07-20T08:54:47.091Z,244.00
2018-07-20T08:55:47.091Z,244.00
2018-07-20T08:56:47.122Z,252.00
2018-07-20T08:57:47.150Z,240.00
2018-07-20T08:58:47.182Z,232.00
2018-07-20T08:59:47.214Z,220.00
2018-07-20T09:00:47.240Z,216.00
2018-07-20T09:01:47.269Z,208.00
2018-07-20T09:02:47.300Z,212.00
2018-07-20T09:03:47.330Z,216.00
2018-07-20T09:04:47.360Z,196.00
2018-07-20T09:05:47.393Z,188.00
2018-07-20T09:06:47.421Z,208.00
2018-07-20T09:07:47.452Z,224.00
2018-07-20T09:08:47.481Z,220.00
2018-07-20T09:09:47.508Z,216.00
2018-07-20T09:10:47.538Z,208.00
2018-07-20T09:11:47.568Z,180.00
2018-07-20T09:12:47.598Z,184.00
2018-07-20T09:13:47.779Z,208.00
2018-07-20T09:14:47.657Z,228.00
2018-07-20T09:15:47.688Z,232.00
2018-07-20T09:16:47.728Z,220.00
2018-07-20T09:17:47.747Z,188.00
2018-07-20T09:18:47.777Z,184.00
2018-07-20T09:19:47.807Z,188.00
2018-07-20T09:20:47.944Z,204.00
2018-07-20T09:21:47.866Z,228.00
2018-07-20T09:22:47.897Z,232.00
2018-07-20T09:23:47.927Z,228.00
2018-07-20T09:24:47.966Z,208.00
2018-07-20T09:25:47.985Z,216.00
2018-07-20T09:26:48.015Z,208.00
2018-07-20T09:27:48.045Z,216.00
2018-07-20T09:28:48.075Z,220.00
2018-07-20T09:29:48.104Z,252.00
2018-07-20T09:30:48.134Z,280.00
2018-07-20T09:31:48.165Z,264.00
2018-07-20T09:32:48.195Z,272.00
2018-07-20T09:33:48.223Z,300.00
2018-07-20T09:34:48.253Z,288.00
2018-07-20T09:35:48.289Z,292.00
2018-07-20T09:36:48.314Z,268.00
2018-07-20T09:37:48.380Z,268.00
2018-07-20T09:38:48.372Z,280.00
2018-07-20T09:39:48.402Z,312.00
2018-07-20T09:40:48.433Z,288.00
2018-07-20T09:41:48.461Z,284.00
2018-07-20T09:42:48.517Z,288.00
2018-07-20T09:43:48.522Z,292.00
2018-07-20T09:44:48.552Z,288.00
2018-07-20T09:45:48.582Z,284.00
2018-07-20T09:46:48.611Z,284.00
2018-07-20T09:47:48.645Z,296.00
2018-07-20T09:48:48.673Z,340.00
2018-07-20T09:49:48.700Z,364.00
2018-07-20T09:50:48.730Z,348.00
2018-07-20T09:51:48.760Z,340.00
2018-07-20T09:52:48.798Z,336.00
2018-07-20T09:53:48.820Z,332.00
2018-07-20T09:54:48.852Z,332.00
2018-07-20T09:55:48.881Z,340.00
2018-07-20T09:56:48.910Z,340.00
2018-07-20T09:57:48.939Z,352.00
2018-07-20T09:58:49.007Z,328.00
2018-07-20T09:59:49.063Z,328.00
2018-07-20T10:00:49.031Z,316.00
2018-07-20T10:01:49.058Z,316.00
2018-07-20T10:02:49.088Z,332.00
2018-07-20T10:03:49.138Z,348.00
2018-07-20T10:04:49.190Z,344.00
2018-07-20T10:05:49.178Z,352.00
2018-07-20T10:06:49.210Z,356.00
2018-07-20T10:07:49.237Z,364.00
2018-07-20T10:08:49.267Z,360.00
2018-07-20T10:09:49.296Z,360.00
2018-07-20T10:10:49.327Z,384.00
2018-07-20T10:11:49.356Z,388.00
2018-07-20T10:12:49.387Z,372.00
2018-07-20T10:13:49.416Z,356.00
2018-07-20T10:14:49.445Z,336.00
2018-07-20T10:15:49.476Z,332.00
2018-07-20T10:16:49.507Z,332.00
2018-07-20T10:17:49.535Z,328.00
2018-07-20T10:18:49.565Z,328.00
2018-07-20T10:19:49.595Z,316.00
2018-07-20T10:20:49.627Z,324.00
2018-07-20T10:21:49.655Z,372.00
2018-07-20T10:22:49.713Z,392.00
2018-07-20T10:23:49.717Z,340.00
2018-07-20T10:24:49.769Z,344.00
2018-07-20T10:25:49.774Z,332.00
2018-07-20T10:26:49.804Z,308.00
2018-07-20T10:27:49.844Z,296.00
2018-07-20T10:28:49.864Z,292.00
2018-07-20T10:29:49.900Z,292.00
2018-07-20T10:30:49.923Z,300.00
2018-07-20T10:31:49.953Z,312.00
2018-07-20T10:32:49.983Z,332.00
2018-07-20T10:33:50.012Z,408.00
2018-07-20T10:34:50.043Z,380.00
2018-07-20T10:35:50.073Z,400.00
2018-07-20T10:36:50.103Z,432.00
2018-07-20T10:37:50.132Z,364.00
2018-07-20T10:38:50.163Z,364.00
2018-07-20T10:39:50.192Z,380.00
2018-07-20T10:40:50.222Z,448.00
2018-07-20T10:41:50.251Z,476.00
2018-07-20T10:42:50.281Z,448.00
2018-07-20T10:43:50.313Z,484.00
2018-07-20T10:44:50.341Z,416.00
2018-07-20T10:45:50.372Z,472.00
2018-07-20T10:46:50.417Z,464.00
2018-07-20T10:47:50.432Z,448.00
2018-07-20T10:48:50.461Z,436.00
2018-07-20T10:49:50.490Z,424.00
2018-07-20T10:50:50.520Z,344.00
2018-07-20T10:51:50.551Z,348.00
2018-07-20T10:52:50.591Z,348.00
2018-07-20T10:53:50.610Z,356.00
2018-07-20T10:54:50.640Z,356.00
2018-07-20T10:55:50.669Z,360.00
2018-07-20T10:56:50.701Z,388.00
2018-07-20T10:57:50.729Z,392.00
2018-07-20T10:58:50.759Z,388.00
2018-07-20T10:59:50.796Z,416.00
2018-07-20T11:00:50.819Z,408.00
2018-07-20T11:01:50.849Z,396.00
2018-07-20T11:02:50.899Z,388.00
2018-07-20T11:03:50.914Z,360.00
2018-07-20T11:04:50.939Z,332.00
2018-07-20T11:05:50.968Z,328.00
2018-07-20T11:06:51.011Z,332.00
2018-07-20T11:07:51.029Z,356.00
2018-07-20T11:08:51.058Z,376.00
2018-07-20T11:09:51.088Z,376.00
2018-07-20T11:10:51.118Z,336.00
2018-07-20T11:11:51.148Z,344.00
2018-07-20T11:12:51.178Z,352.00
2018-07-20T11:13:51.216Z,356.00
2018-07-20T11:14:51.237Z,388.00
2018-07-20T11:15:51.271Z,348.00
2018-07-20T11:16:51.298Z,344.00
2018-07-20T11:17:51.326Z,332.00
2018-07-20T11:18:51.381Z,316.00
2018-07-20T11:19:51.387Z,316.00
2018-07-20T11:20:51.420Z,300.00
2018-07-20T11:21:51.473Z,276.00
2018-07-20T11:22:51.476Z,268.00
2018-07-20T11:23:51.506Z,272.00
2018-07-20T11:24:51.537Z,288.00
2018-07-20T11:25:51.592Z,284.00
2018-07-20T11:26:51.596Z,292.00
2018-07-20T11:27:51.627Z,304.00
2018-07-20T11:28:51.657Z,316.00
2018-07-20T11:29:51.687Z,324.00
2018-07-20T11:30:51.748Z,336.00
2018-07-20T11:31:51.745Z,344.00
2018-07-20T11:32:51.775Z,360.00
2018-07-20T11:33:51.805Z,436.00
2018-07-20T11:34:51.836Z,380.00
2018-07-20T11:35:51.865Z,384.00
2018-07-20T11:36:51.895Z,396.00
2018-07-20T11:37:51.952Z,424.00
2018-07-20T11:38:51.967Z,432.00
2018-07-20T11:39:52.026Z,388.00
2018-07-20T11:40:52.054Z,380.00
2018-07-20T11:41:52.058Z,380.00
2018-07-20T11:42:52.075Z,444.00
2018-07-20T11:43:52.138Z,392.00
2018-07-20T11:44:52.135Z,360.00
2018-07-20T11:45:52.163Z,364.00
2018-07-20T11:46:52.194Z,344.00
2018-07-20T11:47:52.224Z,328.00
2018-07-20T11:48:52.255Z,312.00
2018-07-20T11:49:52.284Z,288.00
2018-07-20T11:50:52.314Z,272.00
2018-07-20T11:51:52.344Z,260.00
2018-07-20T11:52:52.374Z,252.00
2018-07-20T11:53:52.421Z,244.00
2018-07-20T11:54:52.434Z,236.00
2018-07-20T11:55:52.496Z,232.00
2018-07-20T11:56:52.510Z,232.00
2018-07-20T11:57:52.523Z,232.00
2018-07-20T11:58:52.605Z,228.00
2018-07-20T11:59:52.584Z,232.00
2018-07-20T12:00:52.614Z,236.00
2018-07-20T12:01:52.662Z,248.00
2018-07-20T12:02:52.674Z,252.00
2018-07-20T12:03:52.704Z,276.00
2018-07-20T12:04:52.734Z,332.00
2018-07-20T12:05:52.765Z,336.00
2018-07-20T12:06:52.831Z,336.00
2018-07-20T12:07:52.824Z,344.00
2018-07-20T12:08:52.852Z,348.00
2018-07-20T12:09:52.882Z,348.00
2018-07-20T12:10:52.913Z,352.00
2018-07-20T12:11:52.962Z,336.00
2018-07-20T12:12:52.972Z,316.00
2018-07-20T12:13:53.002Z,308.00
2018-07-20T12:14:53.032Z,284.00
2018-07-20T12:15:53.063Z,272.00
2018-07-20T12:16:53.093Z,272.00
2018-07-20T12:17:53.133Z,268.00
2018-07-20T12:18:53.168Z,288.00
2018-07-20T12:19:53.183Z,292.00
2018-07-20T12:20:53.212Z,268.00
2018-07-20T12:21:53.241Z,272.00
2018-07-20T12:22:53.271Z,320.00
2018-07-20T12:23:53.301Z,308.00
2018-07-20T12:24:53.343Z,368.00
2018-07-20T12:25:53.362Z,324.00
2018-07-20T12:26:53.394Z,372.00
2018-07-20T12:27:53.421Z,332.00
2018-07-20T12:28:53.452Z,356.00
2018-07-20T12:29:53.518Z,328.00
2018-07-20T12:30:53.512Z,336.00
2018-07-20T12:31:53.542Z,344.00
2018-07-20T12:32:53.605Z,276.00
2018-07-20T12:33:53.639Z,264.00
2018-07-20T12:34:53.634Z,260.00